sensor_id;sensor_type;location;lat;lon;timestamp;P1;durP1;ratioP1;P2;durP2;ratioP2
40953;SDS011;26686;50.130;8.710;2022-11-15T00:04:47;8.75;;;7.95;;
40953;SDS011;26686;50.130;8.710;2022-11-15T00:09:48;10.48;;;7.32;;
40953;SDS011;26686;50.130;8.710;2022-11-15T00:14:49;8.85;;;7.32;;
40953;SDS011;26686;50.130;8.710;2022-11-15T00:19:50;9.48;;;8.07;;
40953;SDS011;26686;50.130;8.710;2022-11-15T00:24:52;8.75;;;7.70;;
40953;SDS011;26686;50.130;8.710;2022-11-15T00:29:53;9.98;;;7.35;;
40953;SDS011;26686;50.130;8.710;2022-11-15T00:34:54;8.02;;;7.18;;
40953;SDS011;26686;50.130;8.710;2022-11-15T00:39:56;8.65;;;7.28;;
40953;SDS011;26686;50.130;8.710;2022-11-15T00:44:57;11.18;;;8.15;;
40953;SDS011;26686;50.130;8.710;2022-11-15T00:49:58;9.55;;;7.63;;
40953;SDS011;26686;50.130;8.710;2022-11-15T00:54:59;9.52;;;8.52;;
40953;SDS011;26686;50.130;8.710;2022-11-15T01:00:01;8.80;;;7.95;;
40953;SDS011;26686;50.130;8.710;2022-11-15T01:05:02;10.63;;;8.02;;
40953;SDS011;26686;50.130;8.710;2022-11-15T01:10:04;8.85;;;7.95;;
40953;SDS011;26686;50.130;8.710;2022-11-15T01:15:06;8.10;;;7.07;;
40953;SDS011;26686;50.130;8.710;2022-11-15T01:20:08;9.70;;;7.63;;
40953;SDS011;26686;50.130;8.710;2022-11-15T01:25:10;6.78;;;6.10;;
40953;SDS011;26686;50.130;8.710;2022-11-15T01:30:11;7.95;;;6.30;;
40953;SDS011;26686;50.130;8.710;2022-11-15T01:35:12;6.18;;;5.57;;
40953;SDS011;26686;50.130;8.710;2022-11-15T01:40:14;6.32;;;5.72;;
40953;SDS011;26686;50.130;8.710;2022-11-15T01:45:15;6.30;;;5.15;;
40953;SDS011;26686;50.130;8.710;2022-11-15T01:50:19;5.55;;;4.60;;
40953;SDS011;26686;50.130;8.710;2022-11-15T01:55:24;6.85;;;5.63;;
40953;SDS011;26686;50.130;8.710;2022-11-15T02:00:29;6.97;;;5.20;;
40953;SDS011;26686;50.130;8.710;2022-11-15T02:05:31;6.95;;;5.10;;
40953;SDS011;26686;50.130;8.710;2022-11-15T02:10:33;6.22;;;5.20;;
40953;SDS011;26686;50.130;8.710;2022-11-15T02:15:38;6.10;;;5.05;;
40953;SDS011;26686;50.130;8.710;2022-11-15T02:21:06;7.30;;;4.85;;
40953;SDS011;26686;50.130;8.710;2022-11-15T02:32:18;4.80;;;4.22;;
40953;SDS011;26686;50.130;8.710;2022-11-15T02:37:34;5.88;;;4.88;;
40953;SDS011;26686;50.130;8.710;2022-11-15T02:42:41;4.82;;;4.00;;
40953;SDS011;26686;50.130;8.710;2022-11-15T02:48:09;6.03;;;4.05;;
40953;SDS011;26686;50.130;8.710;2022-11-15T02:53:11;5.00;;;4.30;;
40953;SDS011;26686;50.130;8.710;2022-11-15T02:58:23;4.28;;;3.72;;
40953;SDS011;26686;50.130;8.710;2022-11-15T03:09:23;6.63;;;4.80;;
40953;SDS011;26686;50.130;8.710;2022-11-15T03:14:29;5.53;;;4.35;;
40953;SDS011;26686;50.130;8.710;2022-11-15T03:19:53;5.38;;;4.57;;
40953;SDS011;26686;50.130;8.710;2022-11-15T03:25:00;7.85;;;4.75;;
40953;SDS011;26686;50.130;8.710;2022-11-15T03:30:07;5.47;;;4.30;;
40953;SDS011;26686;50.130;8.710;2022-11-15T03:35:14;6.13;;;4.63;;
40953;SDS011;26686;50.130;8.710;2022-11-15T03:40:22;5.05;;;4.57;;
40953;SDS011;26686;50.130;8.710;2022-11-15T03:45:30;6.35;;;4.25;;
40953;SDS011;26686;50.130;8.710;2022-11-15T03:51:02;5.50;;;4.50;;
40953;SDS011;26686;50.130;8.710;2022-11-15T03:56:04;7.05;;;4.70;;
40953;SDS011;26686;50.130;8.710;2022-11-15T04:01:06;5.50;;;5.00;;
40953;SDS011;26686;50.130;8.710;2022-11-15T04:06:07;6.72;;;5.05;;
40953;SDS011;26686;50.130;8.710;2022-11-15T04:11:08;5.65;;;4.07;;
40953;SDS011;26686;50.130;8.710;2022-11-15T04:16:10;6.25;;;4.22;;
40953;SDS011;26686;50.130;8.710;2022-11-15T04:21:11;5.40;;;4.85;;
40953;SDS011;26686;50.130;8.710;2022-11-15T04:26:31;6.93;;;4.88;;
40953;SDS011;26686;50.130;8.710;2022-11-15T04:31:32;7.90;;;5.43;;
40953;SDS011;26686;50.130;8.710;2022-11-15T04:36:34;5.50;;;4.85;;
40953;SDS011;26686;50.130;8.710;2022-11-15T04:41:54;5.57;;;4.63;;
40953;SDS011;26686;50.130;8.710;2022-11-15T04:46:55;5.43;;;4.93;;
40953;SDS011;26686;50.130;8.710;2022-11-15T04:51:57;6.07;;;4.55;;
40953;SDS011;26686;50.130;8.710;2022-11-15T04:56:58;5.15;;;4.53;;
40953;SDS011;26686;50.130;8.710;2022-11-15T05:01:59;5.28;;;4.78;;
40953;SDS011;26686;50.130;8.710;2022-11-15T05:07:01;6.50;;;5.15;;
40953;SDS011;26686;50.130;8.710;2022-11-15T05:12:03;5.30;;;4.40;;
40953;SDS011;26686;50.130;8.710;2022-11-15T05:17:04;5.55;;;4.32;;
40953;SDS011;26686;50.130;8.710;2022-11-15T05:22:06;5.75;;;4.55;;
40953;SDS011;26686;50.130;8.710;2022-11-15T05:27:07;6.15;;;4.72;;
40953;SDS011;26686;50.130;8.710;2022-11-15T05:32:08;7.20;;;5.45;;
40953;SDS011;26686;50.130;8.710;2022-11-15T05:37:10;6.03;;;5.40;;
40953;SDS011;26686;50.130;8.710;2022-11-15T05:42:12;7.90;;;5.10;;
40953;SDS011;26686;50.130;8.710;2022-11-15T05:47:16;7.15;;;5.38;;
40953;SDS011;26686;50.130;8.710;2022-11-15T05:52:21;7.18;;;5.38;;
40953;SDS011;26686;50.130;8.710;2022-11-15T05:57:25;6.93;;;5.03;;
40953;SDS011;26686;50.130;8.710;2022-11-15T06:02:27;11.27;;;6.90;;
40953;SDS011;26686;50.130;8.710;2022-11-15T06:07:28;9.20;;;6.80;;
40953;SDS011;26686;50.130;8.710;2022-11-15T06:12:30;27.17;;;23.95;;
40953;SDS011;26686;50.130;8.710;2022-11-15T06:17:32;11.15;;;9.68;;
40953;SDS011;26686;50.130;8.710;2022-11-15T06:22:33;10.43;;;9.32;;
40953;SDS011;26686;50.130;8.710;2022-11-15T06:27:34;7.13;;;6.15;;
40953;SDS011;26686;50.130;8.710;2022-11-15T06:32:36;9.90;;;5.80;;
40953;SDS011;26686;50.130;8.710;2022-11-15T06:37:37;6.05;;;5.18;;
40953;SDS011;26686;50.130;8.710;2022-11-15T06:42:39;7.43;;;5.45;;
40953;SDS011;26686;50.130;8.710;2022-11-15T06:47:46;8.68;;;5.65;;
40953;SDS011;26686;50.130;8.710;2022-11-15T06:52:48;8.80;;;6.28;;
40953;SDS011;26686;50.130;8.710;2022-11-15T06:57:50;8.27;;;7.47;;
40953;SDS011;26686;50.130;8.710;2022-11-15T07:02:52;7.90;;;6.82;;
40953;SDS011;26686;50.130;8.710;2022-11-15T07:07:54;10.75;;;6.70;;
40953;SDS011;26686;50.130;8.710;2022-11-15T07:12:57;10.50;;;6.00;;
40953;SDS011;26686;50.130;8.710;2022-11-15T07:18:01;7.18;;;5.95;;
40953;SDS011;26686;50.130;8.710;2022-11-15T07:23:03;7.07;;;6.00;;
40953;SDS011;26686;50.130;8.710;2022-11-15T07:28:06;7.30;;;5.50;;
40953;SDS011;26686;50.130;8.710;2022-11-15T07:33:07;8.18;;;6.63;;
40953;SDS011;26686;50.130;8.710;2022-11-15T07:38:08;9.80;;;6.55;;
40953;SDS011;26686;50.130;8.710;2022-11-15T07:43:10;9.57;;;6.15;;
40953;SDS011;26686;50.130;8.710;2022-11-15T07:48:11;7.65;;;6.00;;
40953;SDS011;26686;50.130;8.710;2022-11-15T07:53:12;8.00;;;6.07;;
40953;SDS011;26686;50.130;8.710;2022-11-15T07:58:14;11.00;;;5.88;;
40953;SDS011;26686;50.130;8.710;2022-11-15T08:03:16;6.60;;;5.88;;
40953;SDS011;26686;50.130;8.710;2022-11-15T08:08:18;7.20;;;5.38;;
40953;SDS011;26686;50.130;8.710;2022-11-15T08:13:19;7.85;;;5.75;;
40953;SDS011;26686;50.130;8.710;2022-11-15T08:18:22;7.20;;;5.88;;
40953;SDS011;26686;50.130;8.710;2022-11-15T08:23:23;7.78;;;6.30;;
40953;SDS011;26686;50.130;8.710;2022-11-15T08:28:24;7.50;;;6.53;;
40953;SDS011;26686;50.130;8.710;2022-11-15T08:33:25;7.88;;;6.80;;
40953;SDS011;26686;50.130;8.710;2022-11-15T08:38:27;8.32;;;6.35;;
40953;SDS011;26686;50.130;8.710;2022-11-15T08:43:32;7.25;;;6.30;;
40953;SDS011;26686;50.130;8.710;2022-11-15T08:48:35;6.18;;;5.07;;
40953;SDS011;26686;50.130;8.710;2022-11-15T08:53:36;6.53;;;4.93;;
40953;SDS011;26686;50.130;8.710;2022-11-15T08:58:37;7.43;;;4.90;;
40953;SDS011;26686;50.130;8.710;2022-11-15T09:03:39;13.63;;;4.13;;
40953;SDS011;26686;50.130;8.710;2022-11-15T09:08:41;6.82;;;4.10;;
40953;SDS011;26686;50.130;8.710;2022-11-15T09:13:50;7.30;;;4.50;;
40953;SDS011;26686;50.130;8.710;2022-11-15T09:18:52;8.70;;;4.40;;
40953;SDS011;26686;50.130;8.710;2022-11-15T09:23:54;8.65;;;4.25;;
40953;SDS011;26686;50.130;8.710;2022-11-15T09:28:56;8.60;;;4.40;;
40953;SDS011;26686;50.130;8.710;2022-11-15T09:33:57;9.82;;;4.43;;
40953;SDS011;26686;50.130;8.710;2022-11-15T09:38:59;7.93;;;4.85;;
40953;SDS011;26686;50.130;8.710;2022-11-15T09:49:06;6.57;;;4.75;;
40953;SDS011;26686;50.130;8.710;2022-11-15T09:54:11;6.05;;;4.93;;
40953;SDS011;26686;50.130;8.710;2022-11-15T10:00:04;7.97;;;4.88;;
40953;SDS011;26686;50.130;8.710;2022-11-15T10:05:35;7.18;;;4.65;;
40953;SDS011;26686;50.130;8.710;2022-11-15T10:10:40;7.47;;;4.10;;
40953;SDS011;26686;50.130;8.710;2022-11-15T10:15:45;5.78;;;4.57;;
40953;SDS011;26686;50.130;8.710;2022-11-15T10:25:53;6.57;;;5.00;;
40953;SDS011;26686;50.130;8.710;2022-11-15T10:30:57;8.05;;;4.65;;
40953;SDS011;26686;50.130;8.710;2022-11-15T10:41:10;6.50;;;4.65;;
40953;SDS011;26686;50.130;8.710;2022-11-15T10:46:21;9.35;;;4.80;;
40953;SDS011;26686;50.130;8.710;2022-11-15T10:51:53;5.57;;;3.97;;
40953;SDS011;26686;50.130;8.710;2022-11-15T10:56:58;6.28;;;4.10;;
40953;SDS011;26686;50.130;8.710;2022-11-15T11:02:01;4.93;;;4.15;;
40953;SDS011;26686;50.130;8.710;2022-11-15T11:07:08;4.60;;;3.70;;
40953;SDS011;26686;50.130;8.710;2022-11-15T11:12:27;5.03;;;4.18;;
40953;SDS011;26686;50.130;8.710;2022-11-15T11:17:48;6.22;;;4.13;;
40953;SDS011;26686;50.130;8.710;2022-11-15T11:33:50;7.53;;;3.67;;
40953;SDS011;26686;50.130;8.710;2022-11-15T11:50:17;3.55;;;2.80;;
40953;SDS011;26686;50.130;8.710;2022-11-15T12:00:47;5.95;;;3.38;;
40953;SDS011;26686;50.130;8.710;2022-11-15T12:05:54;5.80;;;3.30;;
40953;SDS011;26686;50.130;8.710;2022-11-15T12:16:22;4.40;;;3.38;;
40953;SDS011;26686;50.130;8.710;2022-11-15T12:26:55;3.55;;;2.78;;
40953;SDS011;26686;50.130;8.710;2022-11-15T12:37:44;4.15;;;2.70;;
40953;SDS011;26686;50.130;8.710;2022-11-15T12:43:34;4.78;;;2.60;;
40953;SDS011;26686;50.130;8.710;2022-11-15T12:58:39;3.28;;;2.20;;
40953;SDS011;26686;50.130;8.710;2022-11-15T13:19:38;3.15;;;2.85;;
40953;SDS011;26686;50.130;8.710;2022-11-15T13:24:39;4.25;;;2.30;;
40953;SDS011;26686;50.130;8.710;2022-11-15T13:29:42;3.85;;;2.58;;
40953;SDS011;26686;50.130;8.710;2022-11-15T13:34:45;2.97;;;2.10;;
40953;SDS011;26686;50.130;8.710;2022-11-15T13:39:52;3.78;;;2.08;;
40953;SDS011;26686;50.130;8.710;2022-11-15T13:44:55;2.42;;;1.73;;
40953;SDS011;26686;50.130;8.710;2022-11-15T13:49:58;1.65;;;1.40;;
40953;SDS011;26686;50.130;8.710;2022-11-15T13:55:04;2.70;;;1.30;;
40953;SDS011;26686;50.130;8.710;2022-11-15T14:11:18;1.80;;;1.20;;
40953;SDS011;26686;50.130;8.710;2022-11-15T14:16:21;2.05;;;1.73;;
40953;SDS011;26686;50.130;8.710;2022-11-15T14:21:33;3.72;;;1.70;;
40953;SDS011;26686;50.130;8.710;2022-11-15T14:26:34;3.75;;;1.90;;
40953;SDS011;26686;50.130;8.710;2022-11-15T14:31:35;3.55;;;1.63;;
40953;SDS011;26686;50.130;8.710;2022-11-15T14:36:43;2.63;;;1.67;;
40953;SDS011;26686;50.130;8.710;2022-11-15T14:41:45;3.78;;;1.85;;
40953;SDS011;26686;50.130;8.710;2022-11-15T14:46:46;3.72;;;1.73;;
40953;SDS011;26686;50.130;8.710;2022-11-15T14:51:49;4.85;;;1.85;;
40953;SDS011;26686;50.130;8.710;2022-11-15T14:56:50;4.68;;;1.60;;
40953;SDS011;26686;50.130;8.710;2022-11-15T15:01:51;7.22;;;1.63;;
40953;SDS011;26686;50.130;8.710;2022-11-15T15:06:52;6.40;;;1.92;;
40953;SDS011;26686;50.130;8.710;2022-11-15T15:11:54;3.67;;;1.85;;
40953;SDS011;26686;50.130;8.710;2022-11-15T15:16:55;3.42;;;2.22;;
40953;SDS011;26686;50.130;8.710;2022-11-15T15:21:57;7.80;;;3.13;;
40953;SDS011;26686;50.130;8.710;2022-11-15T15:26:58;8.68;;;4.07;;
40953;SDS011;26686;50.130;8.710;2022-11-15T15:31:59;6.50;;;4.60;;
40953;SDS011;26686;50.130;8.710;2022-11-15T15:37:44;5.63;;;4.00;;
40953;SDS011;26686;50.130;8.710;2022-11-15T15:42:26;6.78;;;4.90;;
40953;SDS011;26686;50.130;8.710;2022-11-15T15:47:27;10.10;;;8.20;;
40953;SDS011;26686;50.130;8.710;2022-11-15T15:52:28;14.50;;;10.07;;
40953;SDS011;26686;50.130;8.710;2022-11-15T15:57:30;11.80;;;7.00;;
40953;SDS011;26686;50.130;8.710;2022-11-15T16:02:31;33.00;;;29.58;;
40953;SDS011;26686;50.130;8.710;2022-11-15T16:07:40;15.02;;;13.48;;
40953;SDS011;26686;50.130;8.710;2022-11-15T16:12:44;31.65;;;28.38;;
40953;SDS011;26686;50.130;8.710;2022-11-15T16:17:52;45.90;;;41.03;;
40953;SDS011;26686;50.130;8.710;2022-11-15T16:22:58;39.72;;;32.03;;
40953;SDS011;26686;50.130;8.710;2022-11-15T16:28:27;16.00;;;11.88;;
40953;SDS011;26686;50.130;8.710;2022-11-15T16:33:30;17.88;;;13.80;;
40953;SDS011;26686;50.130;8.710;2022-11-15T16:38:32;10.52;;;9.25;;
40953;SDS011;26686;50.130;8.710;2022-11-15T16:43:34;51.47;;;41.85;;
40953;SDS011;26686;50.130;8.710;2022-11-15T16:48:36;32.53;;;26.55;;
40953;SDS011;26686;50.130;8.710;2022-11-15T16:53:37;22.13;;;18.98;;
40953;SDS011;26686;50.130;8.710;2022-11-15T16:58:38;21.10;;;17.00;;
40953;SDS011;26686;50.130;8.710;2022-11-15T17:03:40;37.42;;;34.13;;
40953;SDS011;26686;50.130;8.710;2022-11-15T17:08:41;53.83;;;48.13;;
40953;SDS011;26686;50.130;8.710;2022-11-15T17:13:42;29.80;;;26.83;;
40953;SDS011;26686;50.130;8.710;2022-11-15T17:18:44;73.28;;;66.57;;
40953;SDS011;26686;50.130;8.710;2022-11-15T17:23:50;11.52;;;10.40;;
40953;SDS011;26686;50.130;8.710;2022-11-15T17:28:54;10.45;;;8.40;;
40953;SDS011;26686;50.130;8.710;2022-11-15T17:33:57;8.55;;;7.85;;
40953;SDS011;26686;50.130;8.710;2022-11-15T17:38:58;6.22;;;4.93;;
40953;SDS011;26686;50.130;8.710;2022-11-15T17:44:00;3.55;;;3.25;;
40953;SDS011;26686;50.130;8.710;2022-11-15T17:49:03;4.47;;;3.13;;
40953;SDS011;26686;50.130;8.710;2022-11-15T17:54:04;3.35;;;3.05;;
40953;SDS011;26686;50.130;8.710;2022-11-15T17:59:06;6.47;;;3.28;;
40953;SDS011;26686;50.130;8.710;2022-11-15T18:04:16;4.78;;;3.40;;
40953;SDS011;26686;50.130;8.710;2022-11-15T18:09:17;4.07;;;3.20;;
40953;SDS011;26686;50.130;8.710;2022-11-15T18:14:19;3.83;;;3.13;;
40953;SDS011;26686;50.130;8.710;2022-11-15T18:19:20;4.85;;;3.58;;
40953;SDS011;26686;50.130;8.710;2022-11-15T18:29:24;7.55;;;3.95;;
40953;SDS011;26686;50.130;8.710;2022-11-15T18:34:26;5.97;;;3.85;;
40953;SDS011;26686;50.130;8.710;2022-11-15T18:39:33;6.07;;;3.55;;
40953;SDS011;26686;50.130;8.710;2022-11-15T18:44:35;5.38;;;4.40;;
40953;SDS011;26686;50.130;8.710;2022-11-15T18:49:36;5.82;;;4.47;;
40953;SDS011;26686;50.130;8.710;2022-11-15T18:54:37;5.80;;;3.50;;
40953;SDS011;26686;50.130;8.710;2022-11-15T18:59:39;4.53;;;3.90;;
40953;SDS011;26686;50.130;8.710;2022-11-15T19:04:40;6.68;;;5.32;;
40953;SDS011;26686;50.130;8.710;2022-11-15T19:09:41;5.70;;;5.15;;
40953;SDS011;26686;50.130;8.710;2022-11-15T19:14:43;6.45;;;5.32;;
40953;SDS011;26686;50.130;8.710;2022-11-15T19:19:44;5.50;;;4.55;;
40953;SDS011;26686;50.130;8.710;2022-11-15T19:24:45;5.82;;;3.78;;
40953;SDS011;26686;50.130;8.710;2022-11-15T19:29:46;4.70;;;4.20;;
40953;SDS011;26686;50.130;8.710;2022-11-15T19:34:48;5.43;;;4.07;;
40953;SDS011;26686;50.130;8.710;2022-11-15T19:39:49;4.47;;;4.07;;
40953;SDS011;26686;50.130;8.710;2022-11-15T19:44:50;5.55;;;4.93;;
40953;SDS011;26686;50.130;8.710;2022-11-15T19:49:52;5.15;;;4.75;;
40953;SDS011;26686;50.130;8.710;2022-11-15T19:54:53;6.30;;;5.05;;
40953;SDS011;26686;50.130;8.710;2022-11-15T19:59:54;7.75;;;5.13;;
40953;SDS011;26686;50.130;8.710;2022-11-15T20:04:55;7.97;;;6.18;;
40953;SDS011;26686;50.130;8.710;2022-11-15T20:09:57;8.77;;;5.78;;
40953;SDS011;26686;50.130;8.710;2022-11-15T20:14:58;7.53;;;5.95;;
40953;SDS011;26686;50.130;8.710;2022-11-15T20:20:00;10.27;;;5.60;;
40953;SDS011;26686;50.130;8.710;2022-11-15T20:25:01;7.72;;;6.40;;
40953;SDS011;26686;50.130;8.710;2022-11-15T20:30:03;8.40;;;5.80;;
40953;SDS011;26686;50.130;8.710;2022-11-15T20:35:04;5.95;;;5.35;;
40953;SDS011;26686;50.130;8.710;2022-11-15T20:40:06;7.40;;;6.10;;
40953;SDS011;26686;50.130;8.710;2022-11-15T20:45:08;6.93;;;5.25;;
40953;SDS011;26686;50.130;8.710;2022-11-15T20:50:09;5.68;;;4.95;;
40953;SDS011;26686;50.130;8.710;2022-11-15T20:55:30;6.07;;;5.47;;
40953;SDS011;26686;50.130;8.710;2022-11-15T21:00:32;8.02;;;5.97;;
40953;SDS011;26686;50.130;8.710;2022-11-15T21:05:34;7.18;;;5.70;;
40953;SDS011;26686;50.130;8.710;2022-11-15T21:10:41;6.30;;;5.03;;
40953;SDS011;26686;50.130;8.710;2022-11-15T21:16:02;6.53;;;5.93;;
40953;SDS011;26686;50.130;8.710;2022-11-15T21:21:03;6.70;;;5.85;;
40953;SDS011;26686;50.130;8.710;2022-11-15T21:26:05;7.75;;;6.22;;
40953;SDS011;26686;50.130;8.710;2022-11-15T21:31:07;9.02;;;6.88;;
40953;SDS011;26686;50.130;8.710;2022-11-15T21:36:09;7.35;;;5.90;;
40953;SDS011;26686;50.130;8.710;2022-11-15T21:41:10;7.93;;;5.88;;
40953;SDS011;26686;50.130;8.710;2022-11-15T21:46:11;7.30;;;6.05;;
40953;SDS011;26686;50.130;8.710;2022-11-15T21:51:13;6.75;;;5.57;;
40953;SDS011;26686;50.130;8.710;2022-11-15T21:56:14;7.85;;;5.65;;
40953;SDS011;26686;50.130;8.710;2022-11-15T22:01:16;6.53;;;4.72;;
40953;SDS011;26686;50.130;8.710;2022-11-15T22:06:36;5.80;;;5.20;;
40953;SDS011;26686;50.130;8.710;2022-11-15T22:11:37;8.93;;;5.57;;
40953;SDS011;26686;50.130;8.710;2022-11-15T22:16:39;6.78;;;5.80;;
40953;SDS011;26686;50.130;8.710;2022-11-15T22:21:40;8.10;;;5.35;;
40953;SDS011;26686;50.130;8.710;2022-11-15T22:26:44;6.40;;;5.13;;
40953;SDS011;26686;50.130;8.710;2022-11-15T22:31:45;7.30;;;4.88;;
40953;SDS011;26686;50.130;8.710;2022-11-15T22:36:46;7.50;;;5.93;;
40953;SDS011;26686;50.130;8.710;2022-11-15T22:42:08;9.35;;;5.82;;
40953;SDS011;26686;50.130;8.710;2022-11-15T22:47:09;5.38;;;4.85;;
40953;SDS011;26686;50.130;8.710;2022-11-15T22:52:11;5.93;;;5.00;;
40953;SDS011;26686;50.130;8.710;2022-11-15T22:57:13;7.13;;;5.43;;
40953;SDS011;26686;50.130;8.710;2022-11-15T23:02:15;5.75;;;4.70;;
40953;SDS011;26686;50.130;8.710;2022-11-15T23:07:16;6.70;;;5.90;;
40953;SDS011;26686;50.130;8.710;2022-11-15T23:12:17;8.55;;;5.28;;
40953;SDS011;26686;50.130;8.710;2022-11-15T23:17:37;6.60;;;5.38;;
40953;SDS011;26686;50.130;8.710;2022-11-15T23:22:39;5.57;;;5.05;;
40953;SDS011;26686;50.130;8.710;2022-11-15T23:27:49;4.57;;;4.18;;
40953;SDS011;26686;50.130;8.710;2022-11-15T23:32:50;6.10;;;4.30;;
40953;SDS011;26686;50.130;8.710;2022-11-15T23:38:10;5.75;;;4.57;;
40953;SDS011;26686;50.130;8.710;2022-11-15T23:43:11;5.45;;;4.50;;
40953;SDS011;26686;50.130;8.710;2022-11-15T23:48:13;6.07;;;4.07;;
40953;SDS011;26686;50.130;8.710;2022-11-15T23:53:14;7.18;;;5.15;;
40953;SDS011;26686;50.130;8.710;2022-11-15T23:58:16;6.93;;;5.45;;
